sensor_id;sensor_type;location;lat;lon;timestamp;P1;durP1;ratioP1;P2;durP2;ratioP2
37205;SDS011;23099;42.636;23.198;2023-07-13T00:01:27;8.90;;;2.70;;
37205;SDS011;23099;42.636;23.198;2023-07-13T00:03:54;7.18;;;3.08;;
37205;SDS011;23099;42.636;23.198;2023-07-13T00:08:49;7.03;;;3.03;;
37205;SDS011;23099;42.636;23.198;2023-07-13T00:11:16;6.75;;;2.55;;
37205;SDS011;23099;42.636;23.198;2023-07-13T00:13:43;5.90;;;2.28;;
37205;SDS011;23099;42.636;23.198;2023-07-13T00:16:12;6.07;;;2.50;;
37205;SDS011;23099;42.636;23.198;2023-07-13T00:18:40;6.70;;;3.00;;
37205;SDS011;23099;42.636;23.198;2023-07-13T00:21:07;9.48;;;2.90;;
37205;SDS011;23099;42.636;23.198;2023-07-13T00:23:35;8.25;;;2.95;;
37205;SDS011;23099;42.636;23.198;2023-07-13T00:26:03;10.70;;;2.60;;
37205;SDS011;23099;42.636;23.198;2023-07-13T00:28:31;8.85;;;2.95;;
37205;SDS011;23099;42.636;23.198;2023-07-13T00:30:58;6.40;;;2.58;;
37205;SDS011;23099;42.636;23.198;2023-07-13T00:33:27;6.10;;;2.47;;
37205;SDS011;23099;42.636;23.198;2023-07-13T00:35:54;8.48;;;3.00;;
37205;SDS011;23099;42.636;23.198;2023-07-13T00:38:21;6.03;;;2.67;;
37205;SDS011;23099;42.636;23.198;2023-07-13T00:40:49;6.57;;;2.65;;
37205;SDS011;23099;42.636;23.198;2023-07-13T00:43:17;6.32;;;2.60;;
37205;SDS011;23099;42.636;23.198;2023-07-13T00:48:40;7.88;;;2.78;;
37205;SDS011;23099;42.636;23.198;2023-07-13T00:51:09;6.80;;;2.55;;
37205;SDS011;23099;42.636;23.198;2023-07-13T00:53:38;6.40;;;2.60;;
37205;SDS011;23099;42.636;23.198;2023-07-13T00:56:05;6.50;;;2.65;;
37205;SDS011;23099;42.636;23.198;2023-07-13T00:58:32;7.05;;;3.08;;
37205;SDS011;23099;42.636;23.198;2023-07-13T01:00:59;7.90;;;2.90;;
37205;SDS011;23099;42.636;23.198;2023-07-13T01:03:26;6.22;;;2.78;;
37205;SDS011;23099;42.636;23.198;2023-07-13T01:05:55;5.72;;;2.97;;
37205;SDS011;23099;42.636;23.198;2023-07-13T01:08:22;8.07;;;3.22;;
37205;SDS011;23099;42.636;23.198;2023-07-13T01:10:53;5.80;;;2.95;;
37205;SDS011;23099;42.636;23.198;2023-07-13T01:13:20;6.57;;;2.67;;
37205;SDS011;23099;42.636;23.198;2023-07-13T01:15:49;8.40;;;3.20;;
37205;SDS011;23099;42.636;23.198;2023-07-13T01:18:19;9.07;;;2.78;;
37205;SDS011;23099;42.636;23.198;2023-07-13T01:20:51;6.32;;;2.60;;
37205;SDS011;23099;42.636;23.198;2023-07-13T01:23:19;7.60;;;2.55;;
37205;SDS011;23099;42.636;23.198;2023-07-13T01:25:46;7.50;;;2.88;;
37205;SDS011;23099;42.636;23.198;2023-07-13T01:28:13;6.20;;;2.80;;
37205;SDS011;23099;42.636;23.198;2023-07-13T01:30:42;6.28;;;3.13;;
37205;SDS011;23099;42.636;23.198;2023-07-13T01:33:11;6.65;;;2.67;;
37205;SDS011;23099;42.636;23.198;2023-07-13T01:38:07;8.70;;;2.92;;
37205;SDS011;23099;42.636;23.198;2023-07-13T01:40:34;9.10;;;3.15;;
37205;SDS011;23099;42.636;23.198;2023-07-13T01:43:02;7.65;;;2.80;;
37205;SDS011;23099;42.636;23.198;2023-07-13T01:45:29;7.95;;;3.05;;
37205;SDS011;23099;42.636;23.198;2023-07-13T01:47:55;9.65;;;3.17;;
37205;SDS011;23099;42.636;23.198;2023-07-13T01:50:23;9.18;;;2.75;;
37205;SDS011;23099;42.636;23.198;2023-07-13T01:52:49;9.80;;;3.40;;
37205;SDS011;23099;42.636;23.198;2023-07-13T01:55:18;7.55;;;3.22;;
37205;SDS011;23099;42.636;23.198;2023-07-13T01:57:45;8.70;;;3.53;;
37205;SDS011;23099;42.636;23.198;2023-07-13T02:00:12;7.75;;;3.28;;
37205;SDS011;23099;42.636;23.198;2023-07-13T02:02:40;8.43;;;2.92;;
37205;SDS011;23099;42.636;23.198;2023-07-13T02:05:07;11.30;;;3.60;;
37205;SDS011;23099;42.636;23.198;2023-07-13T02:07:34;7.00;;;2.58;;
37205;SDS011;23099;42.636;23.198;2023-07-13T02:10:01;10.20;;;3.38;;
37205;SDS011;23099;42.636;23.198;2023-07-13T02:12:29;9.43;;;2.90;;
37205;SDS011;23099;42.636;23.198;2023-07-13T02:14:56;6.70;;;3.45;;
37205;SDS011;23099;42.636;23.198;2023-07-13T02:17:22;7.47;;;3.10;;
37205;SDS011;23099;42.636;23.198;2023-07-13T02:19:49;9.40;;;3.38;;
37205;SDS011;23099;42.636;23.198;2023-07-13T02:22:16;9.45;;;3.47;;
37205;SDS011;23099;42.636;23.198;2023-07-13T02:24:42;7.38;;;3.40;;
37205;SDS011;23099;42.636;23.198;2023-07-13T02:27:09;9.52;;;3.78;;
37205;SDS011;23099;42.636;23.198;2023-07-13T02:29:37;7.93;;;3.53;;
37205;SDS011;23099;42.636;23.198;2023-07-13T02:32:04;8.40;;;3.85;;
37205;SDS011;23099;42.636;23.198;2023-07-13T02:34:32;7.55;;;4.07;;
37205;SDS011;23099;42.636;23.198;2023-07-13T02:36:59;9.23;;;3.88;;
37205;SDS011;23099;42.636;23.198;2023-07-13T02:39:28;8.43;;;3.53;;
37205;SDS011;23099;42.636;23.198;2023-07-13T02:41:54;8.07;;;3.88;;
37205;SDS011;23099;42.636;23.198;2023-07-13T02:44:21;9.32;;;3.72;;
37205;SDS011;23099;42.636;23.198;2023-07-13T02:46:49;8.02;;;3.45;;
37205;SDS011;23099;42.636;23.198;2023-07-13T02:49:16;9.20;;;3.72;;
37205;SDS011;23099;42.636;23.198;2023-07-13T02:51:42;8.07;;;3.20;;
37205;SDS011;23099;42.636;23.198;2023-07-13T02:54:09;7.95;;;3.85;;
37205;SDS011;23099;42.636;23.198;2023-07-13T02:56:38;10.52;;;3.95;;
37205;SDS011;23099;42.636;23.198;2023-07-13T02:59:06;9.48;;;4.32;;
37205;SDS011;23099;42.636;23.198;2023-07-13T03:01:33;6.53;;;2.75;;
37205;SDS011;23099;42.636;23.198;2023-07-13T03:04:01;10.32;;;3.72;;
37205;SDS011;23099;42.636;23.198;2023-07-13T03:08:56;8.00;;;3.53;;
37205;SDS011;23099;42.636;23.198;2023-07-13T03:11:23;9.05;;;3.78;;
37205;SDS011;23099;42.636;23.198;2023-07-13T03:13:50;9.57;;;3.60;;
37205;SDS011;23099;42.636;23.198;2023-07-13T03:16:16;9.70;;;4.32;;
37205;SDS011;23099;42.636;23.198;2023-07-13T03:18:43;7.63;;;3.78;;
37205;SDS011;23099;42.636;23.198;2023-07-13T03:21:12;10.55;;;3.85;;
37205;SDS011;23099;42.636;23.198;2023-07-13T03:23:39;8.20;;;3.92;;
37205;SDS011;23099;42.636;23.198;2023-07-13T03:26:09;7.18;;;3.65;;
37205;SDS011;23099;42.636;23.198;2023-07-13T03:28:37;8.68;;;4.13;;
37205;SDS011;23099;42.636;23.198;2023-07-13T03:31:06;8.63;;;3.83;;
37205;SDS011;23099;42.636;23.198;2023-07-13T03:33:34;7.53;;;3.53;;
37205;SDS011;23099;42.636;23.198;2023-07-13T03:36:01;8.35;;;3.85;;
37205;SDS011;23099;42.636;23.198;2023-07-13T03:38:30;8.60;;;4.00;;
37205;SDS011;23099;42.636;23.198;2023-07-13T03:43:23;7.65;;;3.90;;
37205;SDS011;23099;42.636;23.198;2023-07-13T03:45:50;9.85;;;3.88;;
37205;SDS011;23099;42.636;23.198;2023-07-13T03:48:17;10.57;;;4.40;;
37205;SDS011;23099;42.636;23.198;2023-07-13T03:50:43;12.13;;;4.72;;
37205;SDS011;23099;42.636;23.198;2023-07-13T03:53:10;14.23;;;5.38;;
37205;SDS011;23099;42.636;23.198;2023-07-13T03:55:38;13.38;;;4.72;;
37205;SDS011;23099;42.636;23.198;2023-07-13T03:58:25;11.93;;;4.95;;
37205;SDS011;23099;42.636;23.198;2023-07-13T04:00:53;12.30;;;5.07;;
37205;SDS011;23099;42.636;23.198;2023-07-13T04:03:20;20.30;;;6.07;;
37205;SDS011;23099;42.636;23.198;2023-07-13T04:05:46;12.48;;;5.07;;
37205;SDS011;23099;42.636;23.198;2023-07-13T04:08:13;10.70;;;4.10;;
37205;SDS011;23099;42.636;23.198;2023-07-13T04:10:41;11.10;;;4.70;;
37205;SDS011;23099;42.636;23.198;2023-07-13T04:13:08;9.77;;;4.82;;
37205;SDS011;23099;42.636;23.198;2023-07-13T04:15:35;9.98;;;4.78;;
37205;SDS011;23099;42.636;23.198;2023-07-13T04:18:02;12.45;;;4.95;;
37205;SDS011;23099;42.636;23.198;2023-07-13T04:20:29;9.73;;;4.78;;
37205;SDS011;23099;42.636;23.198;2023-07-13T04:22:56;10.07;;;5.15;;
37205;SDS011;23099;42.636;23.198;2023-07-13T04:25:23;9.65;;;4.68;;
37205;SDS011;23099;42.636;23.198;2023-07-13T04:27:51;12.60;;;5.35;;
37205;SDS011;23099;42.636;23.198;2023-07-13T04:32:45;11.55;;;4.70;;
37205;SDS011;23099;42.636;23.198;2023-07-13T04:35:12;11.77;;;5.50;;
37205;SDS011;23099;42.636;23.198;2023-07-13T04:37:39;12.88;;;5.07;;
37205;SDS011;23099;42.636;23.198;2023-07-13T04:40:06;14.25;;;5.28;;
37205;SDS011;23099;42.636;23.198;2023-07-13T04:42:36;11.77;;;5.47;;
37205;SDS011;23099;42.636;23.198;2023-07-13T04:45:05;12.68;;;5.15;;
37205;SDS011;23099;42.636;23.198;2023-07-13T04:47:33;11.18;;;5.57;;
37205;SDS011;23099;42.636;23.198;2023-07-13T04:49:59;11.48;;;5.63;;
37205;SDS011;23099;42.636;23.198;2023-07-13T04:52:26;13.32;;;5.95;;
37205;SDS011;23099;42.636;23.198;2023-07-13T04:54:53;12.82;;;6.25;;
37205;SDS011;23099;42.636;23.198;2023-07-13T04:57:19;13.23;;;5.88;;
37205;SDS011;23099;42.636;23.198;2023-07-13T04:59:46;12.90;;;5.93;;
37205;SDS011;23099;42.636;23.198;2023-07-13T05:02:14;11.23;;;5.72;;
37205;SDS011;23099;42.636;23.198;2023-07-13T05:07:07;12.00;;;5.93;;
37205;SDS011;23099;42.636;23.198;2023-07-13T05:09:34;11.63;;;6.03;;
37205;SDS011;23099;42.636;23.198;2023-07-13T05:12:01;12.32;;;6.15;;
37205;SDS011;23099;42.636;23.198;2023-07-13T05:14:28;13.25;;;6.05;;
37205;SDS011;23099;42.636;23.198;2023-07-13T05:16:54;13.30;;;5.90;;
37205;SDS011;23099;42.636;23.198;2023-07-13T05:19:23;14.77;;;6.68;;
37205;SDS011;23099;42.636;23.198;2023-07-13T05:21:50;13.35;;;6.57;;
37205;SDS011;23099;42.636;23.198;2023-07-13T05:24:17;14.45;;;6.65;;
37205;SDS011;23099;42.636;23.198;2023-07-13T05:26:43;18.00;;;6.43;;
37205;SDS011;23099;42.636;23.198;2023-07-13T05:29:10;14.27;;;6.45;;
37205;SDS011;23099;42.636;23.198;2023-07-13T05:31:37;15.05;;;6.80;;
37205;SDS011;23099;42.636;23.198;2023-07-13T05:34:04;13.55;;;6.47;;
37205;SDS011;23099;42.636;23.198;2023-07-13T05:36:32;14.48;;;6.35;;
37205;SDS011;23099;42.636;23.198;2023-07-13T05:38:59;12.98;;;5.68;;
37205;SDS011;23099;42.636;23.198;2023-07-13T05:41:26;13.07;;;6.65;;
37205;SDS011;23099;42.636;23.198;2023-07-13T05:43:52;15.65;;;6.72;;
37205;SDS011;23099;42.636;23.198;2023-07-13T05:46:19;15.52;;;7.20;;
37205;SDS011;23099;42.636;23.198;2023-07-13T05:48:46;15.52;;;6.32;;
37205;SDS011;23099;42.636;23.198;2023-07-13T05:51:12;13.80;;;6.72;;
37205;SDS011;23099;42.636;23.198;2023-07-13T05:53:41;13.48;;;6.65;;
37205;SDS011;23099;42.636;23.198;2023-07-13T05:56:07;18.25;;;6.75;;
37205;SDS011;23099;42.636;23.198;2023-07-13T05:58:34;13.10;;;6.13;;
37205;SDS011;23099;42.636;23.198;2023-07-13T06:01:01;13.20;;;6.55;;
37205;SDS011;23099;42.636;23.198;2023-07-13T06:03:30;15.70;;;7.32;;
37205;SDS011;23099;42.636;23.198;2023-07-13T06:05:57;13.80;;;6.75;;
37205;SDS011;23099;42.636;23.198;2023-07-13T06:08:25;15.45;;;6.35;;
37205;SDS011;23099;42.636;23.198;2023-07-13T06:10:53;35.05;;;7.65;;
37205;SDS011;23099;42.636;23.198;2023-07-13T06:13:20;21.33;;;7.07;;
37205;SDS011;23099;42.636;23.198;2023-07-13T06:15:47;18.60;;;7.38;;
37205;SDS011;23099;42.636;23.198;2023-07-13T06:18:14;20.73;;;7.30;;
37205;SDS011;23099;42.636;23.198;2023-07-13T06:20:41;19.35;;;7.88;;
37205;SDS011;23099;42.636;23.198;2023-07-13T06:23:08;20.70;;;7.57;;
37205;SDS011;23099;42.636;23.198;2023-07-13T06:25:35;20.95;;;7.68;;
37205;SDS011;23099;42.636;23.198;2023-07-13T06:28:03;24.08;;;7.53;;
37205;SDS011;23099;42.636;23.198;2023-07-13T06:30:30;19.95;;;7.18;;
37205;SDS011;23099;42.636;23.198;2023-07-13T06:32:57;24.77;;;7.70;;
37205;SDS011;23099;42.636;23.198;2023-07-13T06:35:24;21.88;;;7.55;;
37205;SDS011;23099;42.636;23.198;2023-07-13T06:37:50;20.88;;;7.88;;
37205;SDS011;23099;42.636;23.198;2023-07-13T06:40:17;19.65;;;7.43;;
37205;SDS011;23099;42.636;23.198;2023-07-13T06:42:44;22.35;;;7.70;;
37205;SDS011;23099;42.636;23.198;2023-07-13T06:45:12;24.80;;;8.32;;
37205;SDS011;23099;42.636;23.198;2023-07-13T06:47:39;20.15;;;7.80;;
37205;SDS011;23099;42.636;23.198;2023-07-13T06:50:06;19.15;;;8.07;;
37205;SDS011;23099;42.636;23.198;2023-07-13T06:52:33;22.73;;;8.90;;
37205;SDS011;23099;42.636;23.198;2023-07-13T06:55:00;20.92;;;9.05;;
37205;SDS011;23099;42.636;23.198;2023-07-13T06:57:27;20.23;;;10.40;;
37205;SDS011;23099;42.636;23.198;2023-07-13T06:59:54;26.63;;;10.23;;
37205;SDS011;23099;42.636;23.198;2023-07-13T07:02:22;24.52;;;8.98;;
37205;SDS011;23099;42.636;23.198;2023-07-13T07:04:48;24.55;;;8.85;;
37205;SDS011;23099;42.636;23.198;2023-07-13T07:07:15;19.50;;;7.30;;
37205;SDS011;23099;42.636;23.198;2023-07-13T07:09:42;27.48;;;7.55;;
37205;SDS011;23099;42.636;23.198;2023-07-13T07:12:09;19.30;;;7.47;;
37205;SDS011;23099;42.636;23.198;2023-07-13T07:14:35;19.58;;;7.70;;
37205;SDS011;23099;42.636;23.198;2023-07-13T07:17:02;22.08;;;7.68;;
37205;SDS011;23099;42.636;23.198;2023-07-13T07:19:31;16.43;;;6.40;;
37205;SDS011;23099;42.636;23.198;2023-07-13T07:21:57;14.27;;;6.30;;
37205;SDS011;23099;42.636;23.198;2023-07-13T07:24:24;19.73;;;6.07;;
37205;SDS011;23099;42.636;23.198;2023-07-13T07:26:51;14.83;;;5.50;;
37205;SDS011;23099;42.636;23.198;2023-07-13T07:29:18;21.25;;;5.53;;
37205;SDS011;23099;42.636;23.198;2023-07-13T07:31:45;13.80;;;4.68;;
37205;SDS011;23099;42.636;23.198;2023-07-13T07:34:11;11.35;;;4.40;;
37205;SDS011;23099;42.636;23.198;2023-07-13T07:36:39;9.15;;;4.50;;
37205;SDS011;23099;42.636;23.198;2023-07-13T07:41:32;12.30;;;4.95;;
37205;SDS011;23099;42.636;23.198;2023-07-13T07:43:59;14.05;;;3.97;;
37205;SDS011;23099;42.636;23.198;2023-07-13T07:46:26;12.55;;;4.43;;
37205;SDS011;23099;42.636;23.198;2023-07-13T07:48:53;9.10;;;4.55;;
37205;SDS011;23099;42.636;23.198;2023-07-13T07:51:19;10.38;;;4.60;;
37205;SDS011;23099;42.636;23.198;2023-07-13T07:53:47;9.77;;;4.10;;
37205;SDS011;23099;42.636;23.198;2023-07-13T07:56:14;7.63;;;3.60;;
37205;SDS011;23099;42.636;23.198;2023-07-13T07:58:42;8.98;;;3.22;;
37205;SDS011;23099;42.636;23.198;2023-07-13T08:01:09;8.18;;;2.92;;
37205;SDS011;23099;42.636;23.198;2023-07-13T08:03:36;9.23;;;2.75;;
37205;SDS011;23099;42.636;23.198;2023-07-13T08:06:02;7.55;;;3.05;;
37205;SDS011;23099;42.636;23.198;2023-07-13T08:08:29;7.63;;;2.70;;
37205;SDS011;23099;42.636;23.198;2023-07-13T08:10:57;8.20;;;3.05;;
37205;SDS011;23099;42.636;23.198;2023-07-13T08:13:28;7.55;;;2.97;;
37205;SDS011;23099;42.636;23.198;2023-07-13T08:15:55;7.03;;;2.35;;
37205;SDS011;23099;42.636;23.198;2023-07-13T08:18:21;8.15;;;3.47;;
37205;SDS011;23099;42.636;23.198;2023-07-13T08:20:48;7.65;;;2.50;;
37205;SDS011;23099;42.636;23.198;2023-07-13T08:23:15;7.93;;;2.58;;
37205;SDS011;23099;42.636;23.198;2023-07-13T08:25:42;10.18;;;2.67;;
37205;SDS011;23099;42.636;23.198;2023-07-13T08:28:10;6.28;;;2.75;;
37205;SDS011;23099;42.636;23.198;2023-07-13T08:33:03;8.68;;;2.85;;
37205;SDS011;23099;42.636;23.198;2023-07-13T08:35:30;8.35;;;2.45;;
37205;SDS011;23099;42.636;23.198;2023-07-13T08:37:57;6.47;;;2.55;;
37205;SDS011;23099;42.636;23.198;2023-07-13T08:40:25;9.25;;;2.42;;
37205;SDS011;23099;42.636;23.198;2023-07-13T08:42:54;6.63;;;2.97;;
37205;SDS011;23099;42.636;23.198;2023-07-13T08:45:25;9.57;;;2.90;;
37205;SDS011;23099;42.636;23.198;2023-07-13T08:47:59;8.40;;;2.72;;
37205;SDS011;23099;42.636;23.198;2023-07-13T08:50:31;9.18;;;2.40;;
37205;SDS011;23099;42.636;23.198;2023-07-13T08:53:01;10.73;;;2.80;;
37205;SDS011;23099;42.636;23.198;2023-07-13T08:55:30;7.68;;;2.67;;
37205;SDS011;23099;42.636;23.198;2023-07-13T08:58:04;6.55;;;2.58;;
37205;SDS011;23099;42.636;23.198;2023-07-13T09:00:48;8.23;;;3.25;;
37205;SDS011;23099;42.636;23.198;2023-07-13T09:03:20;6.47;;;2.78;;
37205;SDS011;23099;42.636;23.198;2023-07-13T09:05:51;10.80;;;3.70;;
37205;SDS011;23099;42.636;23.198;2023-07-13T09:08:28;9.23;;;3.42;;
37205;SDS011;23099;42.636;23.198;2023-07-13T09:11:05;9.10;;;3.42;;
37205;SDS011;23099;42.636;23.198;2023-07-13T09:13:43;9.10;;;3.73;;
37205;SDS011;23099;42.636;23.198;2023-07-13T09:16:19;7.53;;;3.20;;
37205;SDS011;23099;42.636;23.198;2023-07-13T09:18:48;8.10;;;2.67;;
37205;SDS011;23099;42.636;23.198;2023-07-13T09:21:18;7.53;;;2.72;;
37205;SDS011;23099;42.636;23.198;2023-07-13T09:23:50;8.05;;;3.28;;
37205;SDS011;23099;42.636;23.198;2023-07-13T09:26:21;8.88;;;3.70;;
37205;SDS011;23099;42.636;23.198;2023-07-13T09:28:50;9.25;;;3.22;;
37205;SDS011;23099;42.636;23.198;2023-07-13T09:31:23;6.25;;;3.30;;
37205;SDS011;23099;42.636;23.198;2023-07-13T09:33:55;9.27;;;2.70;;
37205;SDS011;23099;42.636;23.198;2023-07-13T09:36:23;9.18;;;3.10;;
37205;SDS011;23099;42.636;23.198;2023-07-13T09:38:55;7.43;;;3.15;;
37205;SDS011;23099;42.636;23.198;2023-07-13T09:41:27;11.35;;;3.33;;
37205;SDS011;23099;42.636;23.198;2023-07-13T09:44:06;6.20;;;2.65;;
37205;SDS011;23099;42.636;23.198;2023-07-13T09:46:38;8.20;;;3.20;;
37205;SDS011;23099;42.636;23.198;2023-07-13T09:49:09;10.75;;;2.97;;
37205;SDS011;23099;42.636;23.198;2023-07-13T09:51:37;11.05;;;3.28;;
37205;SDS011;23099;42.636;23.198;2023-07-13T09:54:04;9.73;;;3.70;;
37205;SDS011;23099;42.636;23.198;2023-07-13T09:56:31;12.80;;;3.30;;
37205;SDS011;23099;42.636;23.198;2023-07-13T09:58:58;12.27;;;3.35;;
37205;SDS011;23099;42.636;23.198;2023-07-13T10:01:30;7.95;;;3.40;;
37205;SDS011;23099;42.636;23.198;2023-07-13T10:04:00;9.35;;;2.83;;
37205;SDS011;23099;42.636;23.198;2023-07-13T10:06:27;10.57;;;3.85;;
37205;SDS011;23099;42.636;23.198;2023-07-13T10:08:55;10.20;;;3.80;;
37205;SDS011;23099;42.636;23.198;2023-07-13T10:11:23;10.15;;;3.33;;
37205;SDS011;23099;42.636;23.198;2023-07-13T10:13:55;10.68;;;3.67;;
37205;SDS011;23099;42.636;23.198;2023-07-13T10:16:23;37.42;;;3.92;;
37205;SDS011;23099;42.636;23.198;2023-07-13T10:18:51;9.00;;;3.58;;
37205;SDS011;23099;42.636;23.198;2023-07-13T10:21:26;5.93;;;3.08;;
37205;SDS011;23099;42.636;23.198;2023-07-13T10:23:55;12.63;;;4.65;;
37205;SDS011;23099;42.636;23.198;2023-07-13T10:26:31;9.30;;;3.83;;
37205;SDS011;23099;42.636;23.198;2023-07-13T10:29:01;12.95;;;3.85;;
37205;SDS011;23099;42.636;23.198;2023-07-13T10:31:32;12.13;;;3.38;;
37205;SDS011;23099;42.636;23.198;2023-07-13T10:34:00;9.07;;;3.35;;
37205;SDS011;23099;42.636;23.198;2023-07-13T10:36:31;6.07;;;3.28;;
37205;SDS011;23099;42.636;23.198;2023-07-13T10:39:03;8.63;;;3.38;;
37205;SDS011;23099;42.636;23.198;2023-07-13T10:41:32;8.02;;;3.05;;
37205;SDS011;23099;42.636;23.198;2023-07-13T10:44:03;6.57;;;3.38;;
37205;SDS011;23099;42.636;23.198;2023-07-13T10:46:35;8.40;;;3.40;;
37205;SDS011;23099;42.636;23.198;2023-07-13T10:49:03;7.03;;;3.38;;
37205;SDS011;23099;42.636;23.198;2023-07-13T10:51:34;9.32;;;3.65;;
37205;SDS011;23099;42.636;23.198;2023-07-13T10:54:14;12.73;;;3.80;;
37205;SDS011;23099;42.636;23.198;2023-07-13T10:56:43;14.43;;;4.55;;
37205;SDS011;23099;42.636;23.198;2023-07-13T10:59:12;8.30;;;3.20;;
37205;SDS011;23099;42.636;23.198;2023-07-13T11:01:46;7.75;;;3.40;;
37205;SDS011;23099;42.636;23.198;2023-07-13T11:04:19;7.53;;;3.75;;
37205;SDS011;23099;42.636;23.198;2023-07-13T11:06:50;7.82;;;3.65;;
37205;SDS011;23099;42.636;23.198;2023-07-13T11:09:33;8.65;;;3.72;;
37205;SDS011;23099;42.636;23.198;2023-07-13T11:12:05;7.88;;;3.70;;
37205;SDS011;23099;42.636;23.198;2023-07-13T11:14:35;10.00;;;4.05;;
37205;SDS011;23099;42.636;23.198;2023-07-13T11:20:18;9.93;;;3.85;;
37205;SDS011;23099;42.636;23.198;2023-07-13T11:22:51;10.95;;;3.63;;
37205;SDS011;23099;42.636;23.198;2023-07-13T11:25:33;10.07;;;3.67;;
37205;SDS011;23099;42.636;23.198;2023-07-13T11:30:49;11.52;;;3.45;;
37205;SDS011;23099;42.636;23.198;2023-07-13T11:33:27;11.00;;;3.40;;
37205;SDS011;23099;42.636;23.198;2023-07-13T11:35:59;9.52;;;3.50;;
37205;SDS011;23099;42.636;23.198;2023-07-13T11:38:31;10.45;;;3.15;;
37205;SDS011;23099;42.636;23.198;2023-07-13T11:41:02;9.63;;;3.42;;
37205;SDS011;23099;42.636;23.198;2023-07-13T11:43:31;12.88;;;3.95;;
37205;SDS011;23099;42.636;23.198;2023-07-13T11:46:11;9.65;;;3.45;;
37205;SDS011;23099;42.636;23.198;2023-07-13T11:48:39;9.70;;;3.50;;
37205;SDS011;23099;42.636;23.198;2023-07-13T11:51:06;7.57;;;3.20;;
37205;SDS011;23099;42.636;23.198;2023-07-13T11:53:45;10.98;;;3.65;;
37205;SDS011;23099;42.636;23.198;2023-07-13T11:56:14;9.30;;;2.85;;
37205;SDS011;23099;42.636;23.198;2023-07-13T11:58:41;9.40;;;3.40;;
37205;SDS011;23099;42.636;23.198;2023-07-13T12:01:10;9.23;;;3.10;;
37205;SDS011;23099;42.636;23.198;2023-07-13T12:03:44;7.93;;;3.30;;
37205;SDS011;23099;42.636;23.198;2023-07-13T12:06:21;10.35;;;3.05;;
37205;SDS011;23099;42.636;23.198;2023-07-13T12:08:55;8.63;;;3.03;;
37205;SDS011;23099;42.636;23.198;2023-07-13T12:11:23;8.90;;;3.35;;
37205;SDS011;23099;42.636;23.198;2023-07-13T12:13:50;8.93;;;3.00;;
37205;SDS011;23099;42.636;23.198;2023-07-13T12:16:17;14.02;;;3.28;;
37205;SDS011;23099;42.636;23.198;2023-07-13T12:18:59;11.18;;;3.42;;
37205;SDS011;23099;42.636;23.198;2023-07-13T12:21:29;10.98;;;3.40;;
37205;SDS011;23099;42.636;23.198;2023-07-13T12:23:59;9.00;;;3.05;;
37205;SDS011;23099;42.636;23.198;2023-07-13T12:26:29;8.00;;;2.85;;
37205;SDS011;23099;42.636;23.198;2023-07-13T12:28:58;9.40;;;3.10;;
37205;SDS011;23099;42.636;23.198;2023-07-13T12:31:30;8.75;;;2.80;;
37205;SDS011;23099;42.636;23.198;2023-07-13T12:34:01;9.52;;;3.30;;
37205;SDS011;23099;42.636;23.198;2023-07-13T12:36:29;10.68;;;2.97;;
37205;SDS011;23099;42.636;23.198;2023-07-13T12:39:01;9.13;;;3.33;;
37205;SDS011;23099;42.636;23.198;2023-07-13T12:41:37;12.40;;;3.20;;
37205;SDS011;23099;42.636;23.198;2023-07-13T12:44:04;10.47;;;3.70;;
37205;SDS011;23099;42.636;23.198;2023-07-13T12:46:36;12.55;;;3.33;;
37205;SDS011;23099;42.636;23.198;2023-07-13T12:49:04;11.13;;;3.88;;
37205;SDS011;23099;42.636;23.198;2023-07-13T12:51:33;10.15;;;3.40;;
37205;SDS011;23099;42.636;23.198;2023-07-13T12:54:07;9.27;;;3.60;;
37205;SDS011;23099;42.636;23.198;2023-07-13T12:56:42;9.60;;;3.42;;
37205;SDS011;23099;42.636;23.198;2023-07-13T12:59:14;12.30;;;3.40;;
37205;SDS011;23099;42.636;23.198;2023-07-13T13:01:44;9.77;;;2.97;;
37205;SDS011;23099;42.636;23.198;2023-07-13T13:04:14;9.50;;;3.08;;
37205;SDS011;23099;42.636;23.198;2023-07-13T13:06:46;11.27;;;3.00;;
37205;SDS011;23099;42.636;23.198;2023-07-13T13:11:45;9.05;;;2.90;;
37205;SDS011;23099;42.636;23.198;2023-07-13T13:14:12;11.38;;;3.15;;
37205;SDS011;23099;42.636;23.198;2023-07-13T13:16:44;10.77;;;3.33;;
37205;SDS011;23099;42.636;23.198;2023-07-13T13:19:15;9.27;;;2.60;;
37205;SDS011;23099;42.636;23.198;2023-07-13T13:21:43;13.48;;;3.65;;
37205;SDS011;23099;42.636;23.198;2023-07-13T13:24:11;13.88;;;3.17;;
37205;SDS011;23099;42.636;23.198;2023-07-13T13:26:41;10.77;;;3.20;;
37205;SDS011;23099;42.636;23.198;2023-07-13T13:29:10;12.77;;;3.20;;
37205;SDS011;23099;42.636;23.198;2023-07-13T13:31:39;8.68;;;2.95;;
37205;SDS011;23099;42.636;23.198;2023-07-13T13:34:07;9.68;;;3.35;;
37205;SDS011;23099;42.636;23.198;2023-07-13T13:36:35;10.50;;;2.78;;
37205;SDS011;23099;42.636;23.198;2023-07-13T13:39:02;10.82;;;3.45;;
37205;SDS011;23099;42.636;23.198;2023-07-13T13:41:31;8.90;;;2.90;;
37205;SDS011;23099;42.636;23.198;2023-07-13T13:43:59;14.20;;;3.20;;
37205;SDS011;23099;42.636;23.198;2023-07-13T13:46:26;8.88;;;3.17;;
37205;SDS011;23099;42.636;23.198;2023-07-13T13:48:55;13.23;;;3.65;;
37205;SDS011;23099;42.636;23.198;2023-07-13T13:51:22;13.27;;;3.38;;
37205;SDS011;23099;42.636;23.198;2023-07-13T13:53:50;9.73;;;3.00;;
37205;SDS011;23099;42.636;23.198;2023-07-13T13:58:45;12.40;;;3.50;;
37205;SDS011;23099;42.636;23.198;2023-07-13T14:01:15;16.38;;;4.10;;
37205;SDS011;23099;42.636;23.198;2023-07-13T14:03:44;11.52;;;3.55;;
37205;SDS011;23099;42.636;23.198;2023-07-13T14:06:11;9.20;;;3.50;;
37205;SDS011;23099;42.636;23.198;2023-07-13T14:08:38;15.98;;;3.33;;
37205;SDS011;23099;42.636;23.198;2023-07-13T14:11:05;14.07;;;3.28;;
37205;SDS011;23099;42.636;23.198;2023-07-13T14:13:37;12.02;;;3.33;;
37205;SDS011;23099;42.636;23.198;2023-07-13T14:16:09;11.40;;;3.28;;
37205;SDS011;23099;42.636;23.198;2023-07-13T14:18:39;9.85;;;3.50;;
37205;SDS011;23099;42.636;23.198;2023-07-13T14:21:10;24.30;;;3.95;;
37205;SDS011;23099;42.636;23.198;2023-07-13T14:23:38;12.60;;;3.33;;
37205;SDS011;23099;42.636;23.198;2023-07-13T14:26:07;11.45;;;3.78;;
37205;SDS011;23099;42.636;23.198;2023-07-13T14:28:37;8.63;;;3.55;;
37205;SDS011;23099;42.636;23.198;2023-07-13T14:31:08;9.13;;;3.78;;
37205;SDS011;23099;42.636;23.198;2023-07-13T14:33:34;14.52;;;3.83;;
37205;SDS011;23099;42.636;23.198;2023-07-13T14:36:03;16.05;;;3.88;;
37205;SDS011;23099;42.636;23.198;2023-07-13T14:38:39;12.45;;;3.47;;
37205;SDS011;23099;42.636;23.198;2023-07-13T14:41:07;11.57;;;2.95;;
37205;SDS011;23099;42.636;23.198;2023-07-13T14:43:34;8.70;;;3.20;;
37205;SDS011;23099;42.636;23.198;2023-07-13T14:46:01;10.13;;;3.50;;
37205;SDS011;23099;42.636;23.198;2023-07-13T14:48:29;16.00;;;4.50;;
37205;SDS011;23099;42.636;23.198;2023-07-13T14:50:57;10.57;;;4.32;;
37205;SDS011;23099;42.636;23.198;2023-07-13T14:53:27;9.13;;;3.45;;
37205;SDS011;23099;42.636;23.198;2023-07-13T14:55:54;9.10;;;3.00;;
37205;SDS011;23099;42.636;23.198;2023-07-13T14:58:20;11.98;;;3.45;;
37205;SDS011;23099;42.636;23.198;2023-07-13T15:00:47;12.00;;;3.30;;
37205;SDS011;23099;42.636;23.198;2023-07-13T15:03:16;11.65;;;3.60;;
37205;SDS011;23099;42.636;23.198;2023-07-13T15:05:46;11.77;;;3.50;;
37205;SDS011;23099;42.636;23.198;2023-07-13T15:08:13;15.05;;;4.05;;
37205;SDS011;23099;42.636;23.198;2023-07-13T15:10:43;11.52;;;3.35;;